createdAt,value
2023-01-13T00:01:20.347Z,99561.26
2023-01-13T00:03:47.087Z,99560.48
2023-01-13T00:06:16.184Z,99563.66
2023-01-13T00:08:42.925Z,99567.95
2023-01-13T00:11:10.279Z,99564.30
2023-01-13T00:13:38.348Z,99568.48
2023-01-13T00:16:06.945Z,99571.95
2023-01-13T00:18:33.879Z,99572.80
2023-01-13T00:21:01.446Z,99574.80
2023-01-13T00:23:28.688Z,99570.02
2023-01-13T00:25:57.679Z,99572.04
2023-01-13T00:28:24.524Z,99575.56
2023-01-13T00:30:51.297Z,99572.40
2023-01-13T00:33:18.248Z,99577.40
2023-01-13T00:35:45.157Z,99577.30
2023-01-13T00:38:11.892Z,99576.48
2023-01-13T00:40:38.537Z,99574.98
2023-01-13T00:43:23.604Z,99574.27
2023-01-13T00:45:51.056Z,99575.39
2023-01-13T00:48:22.031Z,99571.08
2023-01-13T00:51:02.664Z,99568.52
2023-01-13T00:53:32.277Z,99561.57
2023-01-13T00:56:01.569Z,99560.22
2023-01-13T00:58:30.152Z,99553.85
2023-01-13T01:01:06.016Z,99551.41
2023-01-13T01:03:32.952Z,99550.11
2023-01-13T01:06:27.160Z,99554.04
2023-01-13T01:08:54.402Z,99548.58
2023-01-13T01:11:26.837Z,99551.39
2023-01-13T01:13:54.647Z,99548.87
2023-01-13T01:16:27.964Z,99545.16
2023-01-13T01:18:55.286Z,99541.77
2023-01-13T01:21:23.057Z,99539.30
2023-01-13T01:23:49.992Z,99541.14
2023-01-13T01:26:22.775Z,99538.21
2023-01-13T01:28:49.737Z,99535.34
2023-01-13T01:31:27.761Z,99530.83
2023-01-13T01:33:54.568Z,99534.21
2023-01-13T01:36:22.216Z,99529.37
2023-01-13T01:38:49.383Z,99528.28
2023-01-13T01:41:22.984Z,99527.81
2023-01-13T01:43:59.538Z,99525.79
2023-01-13T01:46:40.484Z,99525.73
2023-01-13T01:49:19.339Z,99522.41
2023-01-13T01:51:53.246Z,99521.67
2023-01-13T01:54:23.303Z,99521.39
2023-01-13T01:56:50.110Z,99521.22
2023-01-13T01:59:16.846Z,99516.45
2023-01-13T02:01:43.560Z,99518.76
2023-01-13T02:04:13.720Z,99518.61
2023-01-13T02:06:40.556Z,99517.40
2023-01-13T02:09:07.702Z,99514.09
2023-01-13T02:11:53.619Z,99510.72
2023-01-13T02:14:26.318Z,99508.55
2023-01-13T02:16:59.050Z,99507.58
2023-01-13T02:19:50.776Z,99512.27
2023-01-13T02:22:32.176Z,99507.70
2023-01-13T02:24:58.807Z,99509.66
2023-01-13T02:27:46.752Z,99504.11
2023-01-13T02:30:59.759Z,99505.76
2023-01-13T02:33:41.553Z,99497.64
2023-01-13T02:36:21.399Z,99493.77
2023-01-13T02:38:55.822Z,99495.30
2023-01-13T02:41:52.563Z,99492.57
2023-01-13T02:44:22.682Z,99492.88
2023-01-13T02:46:53.620Z,99489.85
2023-01-13T02:49:24.808Z,99488.45
2023-01-13T02:51:51.810Z,99489.79
2023-01-13T02:54:21.325Z,99489.54
2023-01-13T02:56:49.185Z,99494.91
2023-01-13T02:59:16.270Z,99491.10
2023-01-13T03:01:43.008Z,99489.83
2023-01-13T03:04:13.880Z,99485.39
2023-01-13T03:06:50.445Z,99480.16
2023-01-13T03:09:29.287Z,99483.90
2023-01-13T03:12:02.798Z,99485.47
2023-01-13T03:14:56.987Z,99485.59
2023-01-13T03:17:31.476Z,99484.21
2023-01-13T03:20:25.622Z,99480.64
2023-01-13T03:23:16.872Z,99486.41
2023-01-13T03:25:53.170Z,99485.96
2023-01-13T03:28:24.877Z,99482.48
2023-01-13T03:30:54.001Z,99482.42
2023-01-13T03:33:29.345Z,99481.70
2023-01-13T03:35:58.554Z,99484.41
2023-01-13T03:38:28.981Z,99482.85
2023-01-13T03:40:57.575Z,99483.66
2023-01-13T03:43:50.610Z,99477.34
2023-01-13T03:46:21.928Z,99476.27
2023-01-13T03:48:49.847Z,99473.45
2023-01-13T03:51:17.363Z,99481.60
2023-01-13T03:53:49.591Z,99483.93
2023-01-13T03:56:25.628Z,99485.87
2023-01-13T03:58:52.333Z,99482.55
2023-01-13T04:01:22.240Z,99482.60
2023-01-13T04:03:52.051Z,99483.44
2023-01-13T04:06:48.221Z,99483.38
2023-01-13T04:09:44.553Z,99479.78
2023-01-13T04:12:55.878Z,99480.08
2023-01-13T04:15:24.578Z,99473.53
2023-01-13T04:17:52.505Z,99477.05
2023-01-13T04:20:19.735Z,99483.44
2023-01-13T04:22:46.680Z,99479.31
2023-01-13T04:25:14.770Z,99476.33
2023-01-13T04:27:41.321Z,99475.80
2023-01-13T04:31:27.812Z,99473.77
2023-01-13T04:33:54.471Z,99476.60
2023-01-13T04:36:25.250Z,99476.70
2023-01-13T04:38:51.923Z,99480.80
2023-01-13T04:41:18.603Z,99478.23
2023-01-13T04:43:45.278Z,99480.63
2023-01-13T04:46:12.024Z,99485.27
2023-01-13T04:48:38.881Z,99482.48
2023-01-13T04:51:05.739Z,99480.98
2023-01-13T04:53:32.404Z,99479.38
2023-01-13T04:55:59.051Z,99478.59
2023-01-13T04:58:26.013Z,99482.58
2023-01-13T05:00:52.839Z,99481.83
2023-01-13T05:03:19.631Z,99480.27
2023-01-13T05:05:46.375Z,99483.38
2023-01-13T05:08:13.089Z,99484.71
2023-01-13T05:10:39.800Z,99487.59
2023-01-13T05:13:25.394Z,99486.83
2023-01-13T05:16:06.618Z,99493.17
2023-01-13T05:18:33.563Z,99494.73
2023-01-13T05:21:00.269Z,99497.92
2023-01-13T05:23:46.307Z,99495.07
2023-01-13T05:26:13.066Z,99494.88
2023-01-13T05:28:39.721Z,99490.50
2023-01-13T05:31:06.385Z,99495.44
2023-01-13T05:33:34.992Z,99491.59
2023-01-13T05:36:03.007Z,99491.83
2023-01-13T05:38:29.793Z,99494.92
2023-01-13T05:41:17.954Z,99494.38
2023-01-13T05:43:44.683Z,99491.38
2023-01-13T05:46:11.965Z,99495.91
2023-01-13T05:48:40.787Z,99495.27
2023-01-13T05:51:09.328Z,99494.58
2023-01-13T05:53:36.140Z,99499.29
2023-01-13T05:56:06.979Z,99503.74
2023-01-13T05:58:33.684Z,99505.49
2023-01-13T06:01:01.729Z,99509.00
2023-01-13T06:03:28.530Z,99506.38
2023-01-13T06:06:02.405Z,99508.72
2023-01-13T06:08:30.258Z,99510.10
2023-01-13T06:10:57.020Z,99507.34
2023-01-13T06:13:25.355Z,99510.30
2023-01-13T06:15:55.616Z,99512.23
2023-01-13T06:18:22.460Z,99512.85
2023-01-13T06:20:49.633Z,99512.23
2023-01-13T06:23:16.325Z,99512.20
2023-01-13T06:25:49.330Z,99508.30
2023-01-13T06:28:16.003Z,99508.93
2023-01-13T06:30:55.342Z,99511.21
2023-01-13T06:33:25.241Z,99511.45
2023-01-13T06:35:58.387Z,99511.74
2023-01-13T06:38:25.469Z,99513.96
2023-01-13T06:40:52.137Z,99514.59
2023-01-13T06:43:18.867Z,99515.02
2023-01-13T06:45:47.151Z,99512.90
2023-01-13T06:48:14.332Z,99512.69
2023-01-13T06:50:42.262Z,99508.33
2023-01-13T06:53:09.839Z,99511.95
2023-01-13T06:55:36.763Z,99507.91
2023-01-13T06:58:03.527Z,99508.34
2023-01-13T07:00:30.405Z,99506.99
2023-01-13T10:23:51.776Z,99450.48
2023-01-13T10:26:40.556Z,99450.61
2023-01-13T10:29:19.421Z,99450.36
2023-01-13T10:31:46.210Z,99453.86
2023-01-13T10:34:13.253Z,99451.05
2023-01-13T10:36:39.960Z,99449.23
2023-01-13T10:39:08.877Z,99446.92
2023-01-13T10:41:36.443Z,99440.92
2023-01-13T10:44:18.926Z,99437.46
2023-01-13T10:46:56.507Z,99433.65
2023-01-13T10:49:36.206Z,99430.17
2023-01-13T10:52:03.898Z,99423.27
2023-01-13T10:54:31.059Z,99424.79
2023-01-13T10:57:31.183Z,99427.64
2023-01-13T10:59:58.633Z,99424.63
2023-01-13T11:02:32.676Z,99419.31
2023-01-13T11:05:10.869Z,99420.64
2023-01-13T11:07:45.716Z,99424.02
2023-01-13T11:10:27.465Z,99426.83
2023-01-13T11:13:13.357Z,99434.38
2023-01-13T11:15:55.635Z,99437.02
2023-01-13T11:19:12.250Z,99431.10
2023-01-13T11:21:40.406Z,99428.66
2023-01-13T11:24:21.340Z,99428.51
2023-01-13T11:26:55.645Z,99427.58
2023-01-13T11:29:33.391Z,99427.65
2023-01-13T11:32:14.779Z,99425.70
2023-01-13T11:34:41.720Z,99417.88
2023-01-13T11:37:40.205Z,99416.48
2023-01-13T11:40:23.959Z,99416.90
2023-01-13T11:43:07.367Z,99415.75
2023-01-13T11:45:40.159Z,99421.17
2023-01-13T11:48:11.358Z,99423.17
2023-01-13T11:50:54.026Z,99423.25
2023-01-13T11:53:24.037Z,99421.24
2023-01-13T11:56:24.249Z,99418.98
2023-01-13T11:59:15.406Z,99418.40
2023-01-13T12:02:07.385Z,99421.66
2023-01-13T12:04:50.525Z,99426.98
2023-01-13T12:07:36.311Z,99432.48
2023-01-13T12:10:07.737Z,99430.89
2023-01-13T12:12:49.353Z,99428.48
2023-01-13T12:15:21.090Z,99428.95
2023-01-13T12:18:06.649Z,99430.08
2023-01-13T12:20:58.577Z,99431.12
2023-01-13T12:24:04.776Z,99428.71
2023-01-13T12:26:34.657Z,99424.73
2023-01-13T12:29:05.147Z,99425.67
2023-01-13T12:31:32.084Z,99426.49
2023-01-13T12:34:13.565Z,99424.50
2023-01-13T12:36:55.660Z,99419.58
2023-01-13T12:39:52.718Z,99421.35
2023-01-13T12:43:01.559Z,99421.90
2023-01-13T12:45:32.365Z,99416.33
2023-01-13T12:47:59.724Z,99416.27
2023-01-13T12:50:26.553Z,99421.98
2023-01-13T12:52:54.498Z,99418.23
2023-01-13T12:55:22.062Z,99413.36
2023-01-13T12:58:15.976Z,99416.20
2023-01-13T13:00:45.016Z,99420.23
2023-01-13T13:03:12.512Z,99419.61
2023-01-13T13:05:42.452Z,99420.23
2023-01-13T13:08:25.118Z,99415.05
2023-01-13T13:11:49.604Z,99415.41
2023-01-13T13:14:17.625Z,99427.02
2023-01-13T13:16:45.531Z,99426.97
2023-01-13T13:19:18.796Z,99425.08
2023-01-13T13:22:07.704Z,99432.45
2023-01-13T13:24:34.441Z,99430.88
2023-01-13T13:27:20.686Z,99432.70
2023-01-13T13:30:14.742Z,99433.11
2023-01-13T13:32:50.815Z,99435.80
2023-01-13T13:35:51.986Z,99430.94
2023-01-13T13:38:42.051Z,99431.93
2023-01-13T13:41:37.406Z,99430.81
2023-01-13T13:44:34.323Z,99433.32
2023-01-13T13:47:02.533Z,99426.91
2023-01-13T13:49:41.481Z,99427.19
2023-01-13T13:52:18.094Z,99425.48
2023-01-13T13:54:49.201Z,99429.84
2023-01-13T13:57:34.856Z,99423.20
2023-01-13T14:00:01.739Z,99428.36
2023-01-13T14:02:38.628Z,99430.48
2023-01-13T14:05:31.223Z,99428.56
2023-01-13T14:08:13.224Z,99427.23
2023-01-13T14:10:40.765Z,99426.92
2023-01-13T14:13:21.747Z,99425.89
2023-01-13T14:15:50.526Z,99426.20
2023-01-13T14:18:18.777Z,99420.83
2023-01-13T14:20:53.161Z,99421.02
2023-01-13T14:23:20.286Z,99423.01
2023-01-13T14:25:48.632Z,99424.05
2023-01-13T14:28:27.969Z,99427.48
2023-01-13T14:30:55.796Z,99425.05
2023-01-13T14:33:44.158Z,99421.36
2023-01-13T14:36:18.092Z,99423.35
2023-01-13T14:39:11.671Z,99419.38
2023-01-13T14:41:42.393Z,99413.02
2023-01-13T14:44:22.763Z,99413.09
2023-01-13T14:46:49.441Z,99414.14
2023-01-13T14:49:39.687Z,99417.04
2023-01-13T14:52:17.900Z,99413.65
2023-01-13T14:54:50.848Z,99414.45
2023-01-13T14:57:27.692Z,99409.13
2023-01-13T15:00:16.138Z,99411.30
2023-01-13T15:02:58.559Z,99409.04
2023-01-13T15:05:25.214Z,99407.39
2023-01-13T15:08:01.458Z,99412.92
2023-01-13T15:10:33.094Z,99411.66
2023-01-13T15:13:01.505Z,99407.11
2023-01-13T15:15:35.936Z,99407.48
2023-01-13T15:18:10.708Z,99402.65
2023-01-13T15:20:37.557Z,99403.06
2023-01-13T15:23:04.215Z,99396.02
2023-01-13T15:25:35.837Z,99394.93
2023-01-13T15:28:03.987Z,99391.77
2023-01-13T15:30:30.685Z,99398.10
2023-01-13T15:32:57.851Z,99393.00
2023-01-13T15:35:26.587Z,99392.73
2023-01-13T15:37:55.061Z,99394.52
2023-01-13T15:40:23.595Z,99398.11
2023-01-13T15:43:09.075Z,99398.05
2023-01-13T15:45:55.109Z,99403.08
2023-01-13T15:48:22.911Z,99397.95
2023-01-13T15:50:49.583Z,99398.25
2023-01-13T15:53:16.602Z,99395.37
2023-01-13T15:55:45.195Z,99392.34
2023-01-13T15:58:13.015Z,99393.04
2023-01-13T16:00:40.711Z,99397.03
2023-01-13T16:03:12.645Z,99392.47
2023-01-13T21:21:14.328Z,99401.39
2023-01-13T21:23:42.505Z,99388.18
2023-01-13T21:26:10.150Z,99398.77
2023-01-13T21:28:37.029Z,99396.86
2023-01-13T21:31:08.739Z,99390.01
2023-01-13T21:33:36.299Z,99386.88
2023-01-13T21:36:11.361Z,99387.48
2023-01-13T21:38:38.245Z,99387.55
2023-01-13T21:41:06.596Z,99384.89
2023-01-13T21:43:52.618Z,99383.47
2023-01-13T21:46:38.166Z,99385.91
2023-01-13T21:49:04.929Z,99392.36
2023-01-13T21:51:33.365Z,99391.55
2023-01-13T21:54:00.254Z,99393.88
2023-01-13T21:56:26.999Z,99397.28
2023-01-13T21:58:56.094Z,99402.52
2023-01-13T22:01:22.876Z,99398.75
2023-01-13T22:04:08.652Z,99402.89
2023-01-13T22:06:35.402Z,99401.42
2023-01-13T22:09:03.874Z,99404.09
2023-01-13T22:11:32.314Z,99400.30
2023-01-13T22:14:13.395Z,99395.60
2023-01-13T22:16:42.260Z,99392.59
2023-01-13T22:19:09.677Z,99390.27
2023-01-13T22:21:36.520Z,99391.20
2023-01-13T22:24:03.259Z,99388.58
2023-01-13T22:26:30.010Z,99389.73
2023-01-13T22:28:56.813Z,99385.55
2023-01-13T22:31:23.905Z,99384.70
2023-01-13T22:33:56.870Z,99384.63
2023-01-13T22:36:26.726Z,99378.33
2023-01-13T22:38:55.886Z,99376.48
2023-01-13T22:41:22.887Z,99377.71
2023-01-13T22:43:49.580Z,99377.02
2023-01-13T22:46:17.158Z,99376.02
2023-01-13T22:48:44.076Z,99376.83
2023-01-13T22:51:12.543Z,99378.20
2023-01-13T22:53:39.419Z,99379.45
2023-01-13T22:56:07.066Z,99377.92
2023-01-13T22:58:33.771Z,99376.67
2023-01-13T23:01:08.396Z,99375.45
2023-01-13T23:03:35.187Z,99372.48
2023-01-13T23:06:02.017Z,99375.73
2023-01-13T23:08:28.665Z,99375.34
2023-01-13T23:11:06.622Z,99376.09
2023-01-13T23:13:33.567Z,99372.98
2023-01-13T23:16:09.406Z,99377.73
2023-01-13T23:18:36.184Z,99378.25
2023-01-13T23:21:07.490Z,99376.14
2023-01-13T23:23:34.254Z,99371.17
2023-01-13T23:26:01.065Z,99365.91
2023-01-13T23:28:27.887Z,99364.05
2023-01-13T23:30:54.651Z,99360.30
2023-01-13T23:33:21.583Z,99361.30
2023-01-13T23:35:58.618Z,99362.90
2023-01-13T23:38:25.466Z,99366.08
2023-01-13T23:40:52.231Z,99364.73
2023-01-13T23:43:18.951Z,99359.80
2023-01-13T23:45:45.693Z,99358.30
2023-01-13T23:48:14.255Z,99354.30
2023-01-13T23:50:41.916Z,99348.81
2023-01-13T23:53:08.579Z,99343.12
2023-01-13T23:55:35.415Z,99346.55
2023-01-13T23:58:02.116Z,99349.61
